sensor_id;sensor_type;location;lat;lon;timestamp;temperature;humidity
51383;DHT22;37475;43.358;1.248;2023-03-30T00:00:39;12.20;87.70
51383;DHT22;37475;43.358;1.248;2023-03-30T00:03:08;12.10;88.00
51383;DHT22;37475;43.358;1.248;2023-03-30T00:05:34;12.10;88.00
51383;DHT22;37475;43.358;1.248;2023-03-30T00:08:01;12.00;88.10
51383;DHT22;37475;43.358;1.248;2023-03-30T00:10:27;11.90;88.40
51383;DHT22;37475;43.358;1.248;2023-03-30T00:12:53;11.90;88.50
51383;DHT22;37475;43.358;1.248;2023-03-30T00:15:22;11.90;88.60
51383;DHT22;37475;43.358;1.248;2023-03-30T00:17:49;11.90;88.40
51383;DHT22;37475;43.358;1.248;2023-03-30T00:20:20;11.80;88.40
51383;DHT22;37475;43.358;1.248;2023-03-30T00:22:46;11.70;88.50
51383;DHT22;37475;43.358;1.248;2023-03-30T00:25:14;11.60;88.70
51383;DHT22;37475;43.358;1.248;2023-03-30T00:27:41;11.60;88.70
51383;DHT22;37475;43.358;1.248;2023-03-30T00:30:13;11.60;88.80
51383;DHT22;37475;43.358;1.248;2023-03-30T00:32:41;11.60;88.90
51383;DHT22;37475;43.358;1.248;2023-03-30T00:35:08;11.60;89.00
51383;DHT22;37475;43.358;1.248;2023-03-30T00:37:35;11.50;89.20
51383;DHT22;37475;43.358;1.248;2023-03-30T00:40:03;11.60;89.30
51383;DHT22;37475;43.358;1.248;2023-03-30T00:42:35;11.50;89.40
51383;DHT22;37475;43.358;1.248;2023-03-30T00:45:15;11.40;89.70
51383;DHT22;37475;43.358;1.248;2023-03-30T00:50:16;11.40;89.90
51383;DHT22;37475;43.358;1.248;2023-03-30T00:52:47;11.40;89.80
51383;DHT22;37475;43.358;1.248;2023-03-30T00:55:18;11.30;89.80
51383;DHT22;37475;43.358;1.248;2023-03-30T00:57:46;11.30;89.80
51383;DHT22;37475;43.358;1.248;2023-03-30T01:00:13;11.30;89.80
51383;DHT22;37475;43.358;1.248;2023-03-30T01:02:43;11.30;89.80
51383;DHT22;37475;43.358;1.248;2023-03-30T01:05:15;11.20;89.90
51383;DHT22;37475;43.358;1.248;2023-03-30T01:07:42;11.20;90.00
51383;DHT22;37475;43.358;1.248;2023-03-30T01:10:10;11.20;90.10
51383;DHT22;37475;43.358;1.248;2023-03-30T01:12:37;11.20;90.10
51383;DHT22;37475;43.358;1.248;2023-03-30T01:15:05;11.30;89.90
51383;DHT22;37475;43.358;1.248;2023-03-30T01:17:42;11.20;89.70
51383;DHT22;37475;43.358;1.248;2023-03-30T01:21:00;11.10;90.30
51383;DHT22;37475;43.358;1.248;2023-03-30T01:46:52;11.10;90.20
51383;DHT22;37475;43.358;1.248;2023-03-30T01:49:39;11.00;89.90
51383;DHT22;37475;43.358;1.248;2023-03-30T01:52:16;11.10;89.80
51383;DHT22;37475;43.358;1.248;2023-03-30T01:55:02;10.90;89.90
51383;DHT22;37475;43.358;1.248;2023-03-30T01:58:09;10.90;90.10
51383;DHT22;37475;43.358;1.248;2023-03-30T02:00:38;10.90;90.40
51383;DHT22;37475;43.358;1.248;2023-03-30T02:03:12;10.80;90.40
51383;DHT22;37475;43.358;1.248;2023-03-30T02:05:40;10.90;90.60
51383;DHT22;37475;43.358;1.248;2023-03-30T02:08:10;10.80;90.70
51383;DHT22;37475;43.358;1.248;2023-03-30T02:10:38;10.80;90.80
51383;DHT22;37475;43.358;1.248;2023-03-30T02:13:06;10.80;90.70
51383;DHT22;37475;43.358;1.248;2023-03-30T02:15:44;10.70;90.70
51383;DHT22;37475;43.358;1.248;2023-03-30T02:18:13;10.70;90.90
51383;DHT22;37475;43.358;1.248;2023-03-30T02:20:39;10.70;90.90
51383;DHT22;37475;43.358;1.248;2023-03-30T02:23:05;10.60;91.30
51383;DHT22;37475;43.358;1.248;2023-03-30T02:25:33;10.60;91.50
51383;DHT22;37475;43.358;1.248;2023-03-30T02:28:01;10.60;91.80
51383;DHT22;37475;43.358;1.248;2023-03-30T02:30:32;10.60;91.70
51383;DHT22;37475;43.358;1.248;2023-03-30T02:32:58;10.60;91.50
51383;DHT22;37475;43.358;1.248;2023-03-30T02:41:42;10.50;92.00
51383;DHT22;37475;43.358;1.248;2023-03-30T02:50:34;10.40;92.70
51383;DHT22;37475;43.358;1.248;2023-03-30T02:56:06;10.50;92.90
51383;DHT22;37475;43.358;1.248;2023-03-30T03:01:26;10.60;93.10
51383;DHT22;37475;43.358;1.248;2023-03-30T03:03:55;10.60;93.20
51383;DHT22;37475;43.358;1.248;2023-03-30T03:06:26;10.60;93.00
51383;DHT22;37475;43.358;1.248;2023-03-30T03:08:54;10.40;92.80
51383;DHT22;37475;43.358;1.248;2023-03-30T03:11:20;10.50;93.30
51383;DHT22;37475;43.358;1.248;2023-03-30T03:13:47;10.60;93.30
51383;DHT22;37475;43.358;1.248;2023-03-30T03:16:13;10.50;93.30
51383;DHT22;37475;43.358;1.248;2023-03-30T03:18:39;10.60;93.20
51383;DHT22;37475;43.358;1.248;2023-03-30T03:21:10;10.60;93.20
51383;DHT22;37475;43.358;1.248;2023-03-30T03:23:37;10.40;93.20
51383;DHT22;37475;43.358;1.248;2023-03-30T03:26:03;10.40;93.20
51383;DHT22;37475;43.358;1.248;2023-03-30T03:28:31;10.40;93.00
51383;DHT22;37475;43.358;1.248;2023-03-30T03:30:57;10.40;92.90
51383;DHT22;37475;43.358;1.248;2023-03-30T03:33:25;10.40;92.80
51383;DHT22;37475;43.358;1.248;2023-03-30T03:35:52;10.40;92.70
51383;DHT22;37475;43.358;1.248;2023-03-30T03:38:19;10.40;92.60
51383;DHT22;37475;43.358;1.248;2023-03-30T03:40:53;10.30;92.70
51383;DHT22;37475;43.358;1.248;2023-03-30T03:43:20;10.20;92.80
51383;DHT22;37475;43.358;1.248;2023-03-30T03:45:47;10.20;92.80
51383;DHT22;37475;43.358;1.248;2023-03-30T03:48:15;10.10;92.90
51383;DHT22;37475;43.358;1.248;2023-03-30T03:50:43;10.10;92.90
51383;DHT22;37475;43.358;1.248;2023-03-30T03:53:10;10.10;93.00
51383;DHT22;37475;43.358;1.248;2023-03-30T03:55:36;10.10;93.00
51383;DHT22;37475;43.358;1.248;2023-03-30T03:58:04;10.10;93.00
51383;DHT22;37475;43.358;1.248;2023-03-30T04:00:30;10.10;93.10
51383;DHT22;37475;43.358;1.248;2023-03-30T04:02:57;10.10;93.20
51383;DHT22;37475;43.358;1.248;2023-03-30T04:05:23;10.10;93.20
51383;DHT22;37475;43.358;1.248;2023-03-30T04:07:50;10.10;93.10
51383;DHT22;37475;43.358;1.248;2023-03-30T04:10:18;10.10;92.90
51383;DHT22;37475;43.358;1.248;2023-03-30T04:12:45;10.10;92.70
51383;DHT22;37475;43.358;1.248;2023-03-30T04:15:11;10.10;92.60
51383;DHT22;37475;43.358;1.248;2023-03-30T04:17:37;10.10;92.70
51383;DHT22;37475;43.358;1.248;2023-03-30T04:20:04;10.10;92.70
51383;DHT22;37475;43.358;1.248;2023-03-30T04:22:37;10.10;92.50
51383;DHT22;37475;43.358;1.248;2023-03-30T04:25:09;9.80;92.30
51383;DHT22;37475;43.358;1.248;2023-03-30T04:27:40;9.70;92.40
51383;DHT22;37475;43.358;1.248;2023-03-30T04:30:10;9.80;92.40
51383;DHT22;37475;43.358;1.248;2023-03-30T04:32:37;9.80;92.50
51383;DHT22;37475;43.358;1.248;2023-03-30T04:35:04;9.90;92.50
51383;DHT22;37475;43.358;1.248;2023-03-30T04:37:31;9.90;92.30
51383;DHT22;37475;43.358;1.248;2023-03-30T04:40:01;9.90;92.20
51383;DHT22;37475;43.358;1.248;2023-03-30T04:42:32;9.90;92.30
51383;DHT22;37475;43.358;1.248;2023-03-30T04:45:06;9.70;92.50
51383;DHT22;37475;43.358;1.248;2023-03-30T04:47:33;9.70;92.50
51383;DHT22;37475;43.358;1.248;2023-03-30T04:50:00;9.70;92.70
51383;DHT22;37475;43.358;1.248;2023-03-30T04:52:26;9.60;92.90
51383;DHT22;37475;43.358;1.248;2023-03-30T04:54:52;9.60;93.10
51383;DHT22;37475;43.358;1.248;2023-03-30T04:57:18;9.60;93.10
51383;DHT22;37475;43.358;1.248;2023-03-30T04:59:44;9.70;93.10
51383;DHT22;37475;43.358;1.248;2023-03-30T05:02:11;9.60;92.80
51383;DHT22;37475;43.358;1.248;2023-03-30T05:04:38;9.50;93.30
51383;DHT22;37475;43.358;1.248;2023-03-30T05:07:05;9.40;93.50
51383;DHT22;37475;43.358;1.248;2023-03-30T05:09:31;9.40;93.70
51383;DHT22;37475;43.358;1.248;2023-03-30T05:11:57;9.30;93.80
51383;DHT22;37475;43.358;1.248;2023-03-30T05:14:23;9.20;93.90
51383;DHT22;37475;43.358;1.248;2023-03-30T05:16:49;9.20;94.00
51383;DHT22;37475;43.358;1.248;2023-03-30T05:19:16;9.20;94.00
51383;DHT22;37475;43.358;1.248;2023-03-30T05:21:42;9.10;94.30
51383;DHT22;37475;43.358;1.248;2023-03-30T05:24:10;9.10;94.40
51383;DHT22;37475;43.358;1.248;2023-03-30T05:26:37;9.10;94.40
51383;DHT22;37475;43.358;1.248;2023-03-30T05:29:02;9.10;94.40
51383;DHT22;37475;43.358;1.248;2023-03-30T05:31:28;9.10;94.40
51383;DHT22;37475;43.358;1.248;2023-03-30T05:33:54;9.20;94.30
51383;DHT22;37475;43.358;1.248;2023-03-30T05:36:20;9.10;94.20
51383;DHT22;37475;43.358;1.248;2023-03-30T05:38:46;9.10;94.20
51383;DHT22;37475;43.358;1.248;2023-03-30T05:41:12;9.10;94.20
51383;DHT22;37475;43.358;1.248;2023-03-30T05:43:38;9.20;94.10
51383;DHT22;37475;43.358;1.248;2023-03-30T05:46:05;9.20;94.00
51383;DHT22;37475;43.358;1.248;2023-03-30T05:48:31;9.20;93.90
51383;DHT22;37475;43.358;1.248;2023-03-30T05:50:57;9.30;93.80
51383;DHT22;37475;43.358;1.248;2023-03-30T05:53:23;9.30;93.70
51383;DHT22;37475;43.358;1.248;2023-03-30T05:55:48;9.30;93.70
51383;DHT22;37475;43.358;1.248;2023-03-30T05:58:15;9.40;93.50
51383;DHT22;37475;43.358;1.248;2023-03-30T06:00:43;9.40;93.40
51383;DHT22;37475;43.358;1.248;2023-03-30T06:03:10;9.40;93.30
51383;DHT22;37475;43.358;1.248;2023-03-30T06:05:38;9.40;93.20
51383;DHT22;37475;43.358;1.248;2023-03-30T06:08:06;9.50;93.10
51383;DHT22;37475;43.358;1.248;2023-03-30T06:10:36;9.60;93.10
51383;DHT22;37475;43.358;1.248;2023-03-30T06:13:02;9.60;93.10
51383;DHT22;37475;43.358;1.248;2023-03-30T06:15:28;9.60;93.00
51383;DHT22;37475;43.358;1.248;2023-03-30T06:17:54;9.70;92.80
51383;DHT22;37475;43.358;1.248;2023-03-30T06:20:20;9.80;92.80
51383;DHT22;37475;43.358;1.248;2023-03-30T06:22:49;9.90;92.60
51383;DHT22;37475;43.358;1.248;2023-03-30T06:25:15;10.00;92.40
51383;DHT22;37475;43.358;1.248;2023-03-30T06:27:44;10.10;92.20
51383;DHT22;37475;43.358;1.248;2023-03-30T06:30:12;10.20;92.00
51383;DHT22;37475;43.358;1.248;2023-03-30T06:32:38;10.20;91.70
51383;DHT22;37475;43.358;1.248;2023-03-30T06:35:04;10.30;91.50
51383;DHT22;37475;43.358;1.248;2023-03-30T06:37:31;10.30;91.40
51383;DHT22;37475;43.358;1.248;2023-03-30T06:39:58;10.40;91.30
51383;DHT22;37475;43.358;1.248;2023-03-30T06:42:27;10.40;91.20
51383;DHT22;37475;43.358;1.248;2023-03-30T06:44:53;10.50;91.10
51383;DHT22;37475;43.358;1.248;2023-03-30T06:47:19;10.60;91.10
51383;DHT22;37475;43.358;1.248;2023-03-30T06:49:45;10.60;90.80
51383;DHT22;37475;43.358;1.248;2023-03-30T06:52:10;10.70;90.60
51383;DHT22;37475;43.358;1.248;2023-03-30T06:54:37;10.80;90.40
51383;DHT22;37475;43.358;1.248;2023-03-30T06:57:04;10.90;90.30
51383;DHT22;37475;43.358;1.248;2023-03-30T06:59:30;11.00;90.10
51383;DHT22;37475;43.358;1.248;2023-03-30T07:01:58;11.10;89.80
51383;DHT22;37475;43.358;1.248;2023-03-30T07:04:24;11.30;89.50
51383;DHT22;37475;43.358;1.248;2023-03-30T07:06:50;11.40;89.40
51383;DHT22;37475;43.358;1.248;2023-03-30T07:09:16;11.60;89.10
51383;DHT22;37475;43.358;1.248;2023-03-30T07:11:43;11.80;89.00
51383;DHT22;37475;43.358;1.248;2023-03-30T07:14:08;11.90;88.90
51383;DHT22;37475;43.358;1.248;2023-03-30T07:16:34;12.10;88.70
51383;DHT22;37475;43.358;1.248;2023-03-30T07:19:00;12.30;88.40
51383;DHT22;37475;43.358;1.248;2023-03-30T07:21:26;12.50;87.90
51383;DHT22;37475;43.358;1.248;2023-03-30T07:23:52;12.90;87.30
51383;DHT22;37475;43.358;1.248;2023-03-30T07:26:18;13.30;86.30
51383;DHT22;37475;43.358;1.248;2023-03-30T07:28:44;13.50;85.60
51383;DHT22;37475;43.358;1.248;2023-03-30T07:31:11;13.60;85.30
51383;DHT22;37475;43.358;1.248;2023-03-30T07:33:39;13.80;84.40
51383;DHT22;37475;43.358;1.248;2023-03-30T07:36:05;14.10;83.30
51383;DHT22;37475;43.358;1.248;2023-03-30T07:38:33;14.40;82.10
51383;DHT22;37475;43.358;1.248;2023-03-30T07:40:58;14.60;81.30
51383;DHT22;37475;43.358;1.248;2023-03-30T07:43:25;14.80;79.90
51383;DHT22;37475;43.358;1.248;2023-03-30T07:45:51;15.00;79.00
51383;DHT22;37475;43.358;1.248;2023-03-30T07:48:17;15.10;79.10
51383;DHT22;37475;43.358;1.248;2023-03-30T07:50:43;15.20;77.70
51383;DHT22;37475;43.358;1.248;2023-03-30T07:53:09;15.30;77.70
51383;DHT22;37475;43.358;1.248;2023-03-30T07:55:35;15.50;77.50
51383;DHT22;37475;43.358;1.248;2023-03-30T07:58:02;15.60;78.00
51383;DHT22;37475;43.358;1.248;2023-03-30T08:00:28;15.70;78.40
51383;DHT22;37475;43.358;1.248;2023-03-30T08:02:55;15.80;78.40
51383;DHT22;37475;43.358;1.248;2023-03-30T08:05:21;16.00;77.90
51383;DHT22;37475;43.358;1.248;2023-03-30T08:07:47;16.10;77.20
51383;DHT22;37475;43.358;1.248;2023-03-30T08:10:13;16.20;76.60
51383;DHT22;37475;43.358;1.248;2023-03-30T08:12:38;16.30;76.70
51383;DHT22;37475;43.358;1.248;2023-03-30T08:15:05;16.30;75.10
51383;DHT22;37475;43.358;1.248;2023-03-30T08:17:32;16.40;76.90
51383;DHT22;37475;43.358;1.248;2023-03-30T08:19:58;16.60;76.20
51383;DHT22;37475;43.358;1.248;2023-03-30T08:22:23;16.60;74.50
51383;DHT22;37475;43.358;1.248;2023-03-30T08:24:49;16.80;74.80
51383;DHT22;37475;43.358;1.248;2023-03-30T08:27:15;16.70;74.20
51383;DHT22;37475;43.358;1.248;2023-03-30T08:29:41;16.80;74.60
51383;DHT22;37475;43.358;1.248;2023-03-30T08:32:07;16.80;73.30
51383;DHT22;37475;43.358;1.248;2023-03-30T08:34:33;16.80;73.50
51383;DHT22;37475;43.358;1.248;2023-03-30T08:36:59;16.80;73.00
51383;DHT22;37475;43.358;1.248;2023-03-30T08:39:25;16.90;74.20
51383;DHT22;37475;43.358;1.248;2023-03-30T08:44:52;17.10;71.40
51383;DHT22;37475;43.358;1.248;2023-03-30T08:47:33;17.10;71.60
51383;DHT22;37475;43.358;1.248;2023-03-30T08:52:54;17.20;70.90
51383;DHT22;37475;43.358;1.248;2023-03-30T08:55:31;17.30;70.90
51383;DHT22;37475;43.358;1.248;2023-03-30T09:01:27;17.50;71.20
51383;DHT22;37475;43.358;1.248;2023-03-30T09:06:48;17.70;69.30
51383;DHT22;37475;43.358;1.248;2023-03-30T09:09:22;17.80;70.10
51383;DHT22;37475;43.358;1.248;2023-03-30T09:12:04;18.00;68.10
51383;DHT22;37475;43.358;1.248;2023-03-30T09:15:07;18.10;67.40
51383;DHT22;37475;43.358;1.248;2023-03-30T09:17:41;18.10;65.00
51383;DHT22;37475;43.358;1.248;2023-03-30T09:20:15;18.30;64.40
51383;DHT22;37475;43.358;1.248;2023-03-30T09:22:46;18.40;64.20
51383;DHT22;37475;43.358;1.248;2023-03-30T09:25:36;18.50;64.10
51383;DHT22;37475;43.358;1.248;2023-03-30T09:31:20;18.60;65.70
51383;DHT22;37475;43.358;1.248;2023-03-30T09:34:26;18.60;61.40
51383;DHT22;37475;43.358;1.248;2023-03-30T09:37:04;18.90;64.90
51383;DHT22;37475;43.358;1.248;2023-03-30T09:39:34;19.10;62.60
51383;DHT22;37475;43.358;1.248;2023-03-30T09:45:31;19.50;60.20
51383;DHT22;37475;43.358;1.248;2023-03-30T09:48:07;19.30;62.60
51383;DHT22;37475;43.358;1.248;2023-03-30T09:50:39;19.40;61.20
51383;DHT22;37475;43.358;1.248;2023-03-30T09:53:27;19.30;59.00
51383;DHT22;37475;43.358;1.248;2023-03-30T09:56:01;19.10;61.20
51383;DHT22;37475;43.358;1.248;2023-03-30T09:58:34;19.00;60.60
51383;DHT22;37475;43.358;1.248;2023-03-30T10:03:34;19.30;58.50
51383;DHT22;37475;43.358;1.248;2023-03-30T10:06:06;19.30;59.50
51383;DHT22;37475;43.358;1.248;2023-03-30T10:08:49;19.20;60.80
51383;DHT22;37475;43.358;1.248;2023-03-30T10:11:42;19.20;62.90
51383;DHT22;37475;43.358;1.248;2023-03-30T10:14:29;19.10;60.10
51383;DHT22;37475;43.358;1.248;2023-03-30T10:16:57;19.10;60.80
51383;DHT22;37475;43.358;1.248;2023-03-30T10:19:24;19.10;61.10
51383;DHT22;37475;43.358;1.248;2023-03-30T10:21:58;19.30;62.30
51383;DHT22;37475;43.358;1.248;2023-03-30T10:24:30;19.50;59.10
51383;DHT22;37475;43.358;1.248;2023-03-30T10:27:15;19.40;57.80
51383;DHT22;37475;43.358;1.248;2023-03-30T10:29:48;19.30;58.40
51383;DHT22;37475;43.358;1.248;2023-03-30T10:32:30;19.30;60.20
51383;DHT22;37475;43.358;1.248;2023-03-30T10:34:58;19.30;61.40
51383;DHT22;37475;43.358;1.248;2023-03-30T10:37:38;19.50;60.80
51383;DHT22;37475;43.358;1.248;2023-03-30T10:40:26;19.50;59.60
51383;DHT22;37475;43.358;1.248;2023-03-30T10:43:19;19.50;59.30
51383;DHT22;37475;43.358;1.248;2023-03-30T10:45:49;19.30;58.90
51383;DHT22;37475;43.358;1.248;2023-03-30T10:48:30;19.10;58.70
51383;DHT22;37475;43.358;1.248;2023-03-30T10:54:11;19.30;57.90
51383;DHT22;37475;43.358;1.248;2023-03-30T10:56:51;20.00;57.00
51383;DHT22;37475;43.358;1.248;2023-03-30T10:59:39;20.50;57.20
51383;DHT22;37475;43.358;1.248;2023-03-30T11:08:06;21.00;56.00
51383;DHT22;37475;43.358;1.248;2023-03-30T11:10:39;21.20;57.10
51383;DHT22;37475;43.358;1.248;2023-03-30T11:13:18;21.60;53.80
51383;DHT22;37475;43.358;1.248;2023-03-30T11:15:51;21.60;54.50
51383;DHT22;37475;43.358;1.248;2023-03-30T11:26:47;21.30;52.40
51383;DHT22;37475;43.358;1.248;2023-03-30T11:32:32;20.60;56.50
51383;DHT22;37475;43.358;1.248;2023-03-30T11:43:17;21.10;56.20
51383;DHT22;37475;43.358;1.248;2023-03-30T11:51:48;21.60;55.00
51383;DHT22;37475;43.358;1.248;2023-03-30T12:05:45;23.00;51.20
51383;DHT22;37475;43.358;1.248;2023-03-30T12:11:32;23.50;52.40
51383;DHT22;37475;43.358;1.248;2023-03-30T12:17:01;23.10;51.80
51383;DHT22;37475;43.358;1.248;2023-03-30T12:20:11;23.30;52.10
51383;DHT22;37475;43.358;1.248;2023-03-30T12:28:47;22.70;51.20
51383;DHT22;37475;43.358;1.248;2023-03-30T12:34:26;22.90;50.10
51383;DHT22;37475;43.358;1.248;2023-03-30T12:42:32;23.00;51.20
51383;DHT22;37475;43.358;1.248;2023-03-30T12:48:03;22.00;53.00
51383;DHT22;37475;43.358;1.248;2023-03-30T12:53:55;22.80;52.10
51383;DHT22;37475;43.358;1.248;2023-03-30T12:59:33;23.90;49.30
51383;DHT22;37475;43.358;1.248;2023-03-30T13:05:31;25.00;46.40
51383;DHT22;37475;43.358;1.248;2023-03-30T13:08:05;25.40;46.40
51383;DHT22;37475;43.358;1.248;2023-03-30T13:10:38;25.30;44.10
51383;DHT22;37475;43.358;1.248;2023-03-30T13:13:22;25.50;41.80
51383;DHT22;37475;43.358;1.248;2023-03-30T13:15:53;25.70;43.70
51383;DHT22;37475;43.358;1.248;2023-03-30T13:26:25;24.70;46.00
51383;DHT22;37475;43.358;1.248;2023-03-30T13:32:18;25.80;45.90
51383;DHT22;37475;43.358;1.248;2023-03-30T13:37:24;25.50;46.10
51383;DHT22;37475;43.358;1.248;2023-03-30T13:43:05;25.40;45.00
51383;DHT22;37475;43.358;1.248;2023-03-30T13:51:18;25.10;44.40
51383;DHT22;37475;43.358;1.248;2023-03-30T13:53:52;25.00;45.40
51383;DHT22;37475;43.358;1.248;2023-03-30T13:56:21;24.80;46.80
51383;DHT22;37475;43.358;1.248;2023-03-30T13:58:57;24.20;47.40
51383;DHT22;37475;43.358;1.248;2023-03-30T14:01:28;25.30;45.50
51383;DHT22;37475;43.358;1.248;2023-03-30T14:03:55;25.60;43.60
51383;DHT22;37475;43.358;1.248;2023-03-30T14:06:24;25.80;42.50
51383;DHT22;37475;43.358;1.248;2023-03-30T14:11:35;26.90;42.40
51383;DHT22;37475;43.358;1.248;2023-03-30T14:14:04;27.30;40.50
51383;DHT22;37475;43.358;1.248;2023-03-30T14:16:38;26.10;41.90
51383;DHT22;37475;43.358;1.248;2023-03-30T14:19:25;25.10;45.10
51383;DHT22;37475;43.358;1.248;2023-03-30T14:22:02;26.00;43.60
51383;DHT22;37475;43.358;1.248;2023-03-30T14:24:34;26.70;42.00
51383;DHT22;37475;43.358;1.248;2023-03-30T14:27:14;26.70;42.50
51383;DHT22;37475;43.358;1.248;2023-03-30T14:29:45;27.00;40.20
51383;DHT22;37475;43.358;1.248;2023-03-30T14:32:17;27.00;41.80
51383;DHT22;37475;43.358;1.248;2023-03-30T14:34:50;27.10;41.40
51383;DHT22;37475;43.358;1.248;2023-03-30T14:37:17;27.10;41.50
51383;DHT22;37475;43.358;1.248;2023-03-30T14:39:48;26.60;42.90
51383;DHT22;37475;43.358;1.248;2023-03-30T14:42:21;26.10;42.60
51383;DHT22;37475;43.358;1.248;2023-03-30T14:44:51;26.30;42.60
51383;DHT22;37475;43.358;1.248;2023-03-30T14:47:21;26.60;42.10
51383;DHT22;37475;43.358;1.248;2023-03-30T14:49:51;27.20;41.70
51383;DHT22;37475;43.358;1.248;2023-03-30T14:52:21;27.00;40.10
51383;DHT22;37475;43.358;1.248;2023-03-30T14:55:23;26.80;41.90
51383;DHT22;37475;43.358;1.248;2023-03-30T14:57:50;26.70;40.80
51383;DHT22;37475;43.358;1.248;2023-03-30T15:00:19;27.10;40.70
51383;DHT22;37475;43.358;1.248;2023-03-30T15:02:53;27.20;40.50
51383;DHT22;37475;43.358;1.248;2023-03-30T15:05:23;27.10;41.20
51383;DHT22;37475;43.358;1.248;2023-03-30T15:07:58;27.10;40.10
51383;DHT22;37475;43.358;1.248;2023-03-30T15:10:35;27.70;39.80
51383;DHT22;37475;43.358;1.248;2023-03-30T15:13:08;27.70;38.60
51383;DHT22;37475;43.358;1.248;2023-03-30T15:16:04;27.90;39.40
51383;DHT22;37475;43.358;1.248;2023-03-30T15:18:32;26.90;40.00
51383;DHT22;37475;43.358;1.248;2023-03-30T15:20:59;27.50;39.70
51383;DHT22;37475;43.358;1.248;2023-03-30T15:23:35;28.10;38.90
51383;DHT22;37475;43.358;1.248;2023-03-30T15:26:06;28.00;38.70
51383;DHT22;37475;43.358;1.248;2023-03-30T15:28:37;28.60;37.30
51383;DHT22;37475;43.358;1.248;2023-03-30T15:31:17;27.00;38.60
51383;DHT22;37475;43.358;1.248;2023-03-30T15:33:48;27.50;40.40
51383;DHT22;37475;43.358;1.248;2023-03-30T15:41:17;27.90;40.30
51383;DHT22;37475;43.358;1.248;2023-03-30T15:43:57;27.70;38.70
51383;DHT22;37475;43.358;1.248;2023-03-30T15:46:35;27.30;40.20
51383;DHT22;37475;43.358;1.248;2023-03-30T15:49:02;27.30;39.20
51383;DHT22;37475;43.358;1.248;2023-03-30T15:51:42;28.10;37.90
51383;DHT22;37475;43.358;1.248;2023-03-30T15:54:13;27.00;39.80
51383;DHT22;37475;43.358;1.248;2023-03-30T15:56:50;26.80;39.90
51383;DHT22;37475;43.358;1.248;2023-03-30T16:02:21;27.30;40.00
51383;DHT22;37475;43.358;1.248;2023-03-30T16:04:56;27.20;40.20
51383;DHT22;37475;43.358;1.248;2023-03-30T16:07:23;27.40;40.20
51383;DHT22;37475;43.358;1.248;2023-03-30T16:09:50;27.60;39.20
51383;DHT22;37475;43.358;1.248;2023-03-30T16:12:22;27.40;38.90
51383;DHT22;37475;43.358;1.248;2023-03-30T16:14:50;26.90;40.30
51383;DHT22;37475;43.358;1.248;2023-03-30T16:17:17;26.80;39.70
51383;DHT22;37475;43.358;1.248;2023-03-30T16:19:44;25.50;42.20
51383;DHT22;37475;43.358;1.248;2023-03-30T16:22:11;25.20;41.70
51383;DHT22;37475;43.358;1.248;2023-03-30T16:24:39;25.80;41.10
51383;DHT22;37475;43.358;1.248;2023-03-30T16:27:08;25.80;42.40
51383;DHT22;37475;43.358;1.248;2023-03-30T16:29:35;25.90;42.30
51383;DHT22;37475;43.358;1.248;2023-03-30T16:32:01;25.70;42.20
51383;DHT22;37475;43.358;1.248;2023-03-30T16:34:27;24.60;45.10
51383;DHT22;37475;43.358;1.248;2023-03-30T16:36:53;24.40;46.00
51383;DHT22;37475;43.358;1.248;2023-03-30T16:39:22;23.50;47.50
51383;DHT22;37475;43.358;1.248;2023-03-30T16:41:50;22.60;49.20
51383;DHT22;37475;43.358;1.248;2023-03-30T16:44:17;22.60;49.80
51383;DHT22;37475;43.358;1.248;2023-03-30T16:46:44;22.40;50.30
51383;DHT22;37475;43.358;1.248;2023-03-30T16:49:13;22.00;50.40
51383;DHT22;37475;43.358;1.248;2023-03-30T16:51:40;21.40;52.20
51383;DHT22;37475;43.358;1.248;2023-03-30T16:54:06;21.50;52.70
51383;DHT22;37475;43.358;1.248;2023-03-30T16:56:32;21.10;53.90
51383;DHT22;37475;43.358;1.248;2023-03-30T16:58:58;21.00;53.90
51383;DHT22;37475;43.358;1.248;2023-03-30T17:01:29;21.20;53.70
51383;DHT22;37475;43.358;1.248;2023-03-30T17:03:56;21.10;55.80
51383;DHT22;37475;43.358;1.248;2023-03-30T17:06:22;21.10;54.10
51383;DHT22;37475;43.358;1.248;2023-03-30T17:08:49;21.00;55.40
51383;DHT22;37475;43.358;1.248;2023-03-30T17:11:16;21.00;55.20
51383;DHT22;37475;43.358;1.248;2023-03-30T17:13:42;21.20;54.10
51383;DHT22;37475;43.358;1.248;2023-03-30T17:16:15;21.20;53.60
51383;DHT22;37475;43.358;1.248;2023-03-30T17:18:41;21.20;54.10
51383;DHT22;37475;43.358;1.248;2023-03-30T17:21:07;20.60;56.30
51383;DHT22;37475;43.358;1.248;2023-03-30T17:23:40;20.10;57.70
51383;DHT22;37475;43.358;1.248;2023-03-30T17:26:08;20.00;57.30
51383;DHT22;37475;43.358;1.248;2023-03-30T17:28:34;19.90;57.10
51383;DHT22;37475;43.358;1.248;2023-03-30T17:31:04;20.00;57.40
51383;DHT22;37475;43.358;1.248;2023-03-30T17:33:32;20.00;58.30
51383;DHT22;37475;43.358;1.248;2023-03-30T17:36:21;20.00;58.40
51383;DHT22;37475;43.358;1.248;2023-03-30T17:38:49;19.90;57.50
51383;DHT22;37475;43.358;1.248;2023-03-30T17:41:17;20.10;58.10
51383;DHT22;37475;43.358;1.248;2023-03-30T17:43:44;20.10;58.50
51383;DHT22;37475;43.358;1.248;2023-03-30T17:46:13;20.10;57.80
51383;DHT22;37475;43.358;1.248;2023-03-30T17:48:40;20.00;58.00
51383;DHT22;37475;43.358;1.248;2023-03-30T17:51:06;20.00;58.10
51383;DHT22;37475;43.358;1.248;2023-03-30T17:53:32;19.80;58.90
51383;DHT22;37475;43.358;1.248;2023-03-30T17:55:58;20.00;58.80
51383;DHT22;37475;43.358;1.248;2023-03-30T17:58:34;20.00;58.40
51383;DHT22;37475;43.358;1.248;2023-03-30T18:01:03;20.10;57.90
51383;DHT22;37475;43.358;1.248;2023-03-30T18:03:30;19.40;60.30
51383;DHT22;37475;43.358;1.248;2023-03-30T18:05:58;19.10;61.00
51383;DHT22;37475;43.358;1.248;2023-03-30T18:08:24;18.90;62.00
51383;DHT22;37475;43.358;1.248;2023-03-30T18:10:56;18.90;61.60
51383;DHT22;37475;43.358;1.248;2023-03-30T18:13:24;18.60;62.90
51383;DHT22;37475;43.358;1.248;2023-03-30T18:15:52;18.30;64.50
51383;DHT22;37475;43.358;1.248;2023-03-30T18:18:22;18.40;63.80
51383;DHT22;37475;43.358;1.248;2023-03-30T18:20:56;18.10;63.90
51383;DHT22;37475;43.358;1.248;2023-03-30T18:23:23;18.00;65.50
51383;DHT22;37475;43.358;1.248;2023-03-30T18:25:49;17.90;65.20
51383;DHT22;37475;43.358;1.248;2023-03-30T18:28:17;18.00;65.30
51383;DHT22;37475;43.358;1.248;2023-03-30T18:30:44;18.10;65.10
51383;DHT22;37475;43.358;1.248;2023-03-30T18:33:11;18.10;65.20
51383;DHT22;37475;43.358;1.248;2023-03-30T18:35:37;18.00;64.70
51383;DHT22;37475;43.358;1.248;2023-03-30T18:38:04;17.90;65.20
51383;DHT22;37475;43.358;1.248;2023-03-30T18:40:35;17.80;64.50
51383;DHT22;37475;43.358;1.248;2023-03-30T18:43:04;17.70;65.30
51383;DHT22;37475;43.358;1.248;2023-03-30T18:45:33;17.60;65.30
51383;DHT22;37475;43.358;1.248;2023-03-30T18:48:02;17.70;66.20
51383;DHT22;37475;43.358;1.248;2023-03-30T18:50:39;17.70;65.10